sensor_id;sensor_type;location;lat;lon;timestamp;P1;durP1;ratioP1;P2;durP2;ratioP2
23400;SDS011;11873;49.300;8.920;2023-03-03T00:03:53;27.10;;;17.35;;
23400;SDS011;11873;49.300;8.920;2023-03-03T00:08:53;24.43;;;18.27;;
23400;SDS011;11873;49.300;8.920;2023-03-03T00:13:54;23.13;;;15.83;;
23400;SDS011;11873;49.300;8.920;2023-03-03T00:18:54;22.33;;;16.03;;
23400;SDS011;11873;49.300;8.920;2023-03-03T00:23:57;18.90;;;15.07;;
23400;SDS011;11873;49.300;8.920;2023-03-03T00:29:02;20.90;;;15.63;;
23400;SDS011;11873;49.300;8.920;2023-03-03T00:34:25;17.80;;;14.40;;
23400;SDS011;11873;49.300;8.920;2023-03-03T00:44:36;21.97;;;16.03;;
23400;SDS011;11873;49.300;8.920;2023-03-03T00:49:37;22.07;;;15.67;;
23400;SDS011;11873;49.300;8.920;2023-03-03T00:54:38;23.80;;;15.53;;
23400;SDS011;11873;49.300;8.920;2023-03-03T00:59:38;18.93;;;14.40;;
23400;SDS011;11873;49.300;8.920;2023-03-03T01:04:38;20.13;;;14.60;;
23400;SDS011;11873;49.300;8.920;2023-03-03T01:09:39;20.77;;;15.37;;
23400;SDS011;11873;49.300;8.920;2023-03-03T01:14:40;18.97;;;15.00;;
23400;SDS011;11873;49.300;8.920;2023-03-03T01:19:40;21.97;;;14.60;;
23400;SDS011;11873;49.300;8.920;2023-03-03T01:24:40;21.80;;;15.43;;
23400;SDS011;11873;49.300;8.920;2023-03-03T01:29:40;22.60;;;16.33;;
23400;SDS011;11873;49.300;8.920;2023-03-03T01:34:41;21.50;;;16.37;;
23400;SDS011;11873;49.300;8.920;2023-03-03T01:39:41;21.40;;;15.83;;
23400;SDS011;11873;49.300;8.920;2023-03-03T01:44:41;21.23;;;15.17;;
23400;SDS011;11873;49.300;8.920;2023-03-03T01:54:46;17.17;;;14.17;;
23400;SDS011;11873;49.300;8.920;2023-03-03T01:59:51;28.00;;;15.77;;
23400;SDS011;11873;49.300;8.920;2023-03-03T02:04:51;19.97;;;15.13;;
23400;SDS011;11873;49.300;8.920;2023-03-03T02:10:05;22.70;;;14.83;;
23400;SDS011;11873;49.300;8.920;2023-03-03T02:15:20;21.83;;;16.00;;
23400;SDS011;11873;49.300;8.920;2023-03-03T02:20:29;19.07;;;15.23;;
23400;SDS011;11873;49.300;8.920;2023-03-03T02:25:33;21.10;;;15.67;;
23400;SDS011;11873;49.300;8.920;2023-03-03T02:30:36;22.47;;;16.03;;
23400;SDS011;11873;49.300;8.920;2023-03-03T02:35:38;21.50;;;16.37;;
23400;SDS011;11873;49.300;8.920;2023-03-03T02:40:39;21.67;;;17.33;;
23400;SDS011;11873;49.300;8.920;2023-03-03T02:45:42;20.43;;;16.40;;
23400;SDS011;11873;49.300;8.920;2023-03-03T02:50:42;21.80;;;16.33;;
23400;SDS011;11873;49.300;8.920;2023-03-03T02:55:42;23.30;;;17.83;;
23400;SDS011;11873;49.300;8.920;2023-03-03T03:00:43;28.10;;;19.70;;
23400;SDS011;11873;49.300;8.920;2023-03-03T03:05:43;27.73;;;20.50;;
23400;SDS011;11873;49.300;8.920;2023-03-03T03:10:43;21.53;;;16.47;;
23400;SDS011;11873;49.300;8.920;2023-03-03T03:15:46;24.17;;;16.53;;
23400;SDS011;11873;49.300;8.920;2023-03-03T03:20:46;21.70;;;16.53;;
23400;SDS011;11873;49.300;8.920;2023-03-03T03:25:47;19.70;;;15.33;;
23400;SDS011;11873;49.300;8.920;2023-03-03T03:30:47;20.13;;;15.83;;
23400;SDS011;11873;49.300;8.920;2023-03-03T03:35:49;18.10;;;14.93;;
23400;SDS011;11873;49.300;8.920;2023-03-03T03:40:50;19.07;;;14.73;;
23400;SDS011;11873;49.300;8.920;2023-03-03T03:45:50;19.57;;;14.47;;
23400;SDS011;11873;49.300;8.920;2023-03-03T03:50:50;17.73;;;15.60;;
23400;SDS011;11873;49.300;8.920;2023-03-03T03:55:50;19.47;;;15.57;;
23400;SDS011;11873;49.300;8.920;2023-03-03T04:00:50;18.50;;;14.70;;
23400;SDS011;11873;49.300;8.920;2023-03-03T04:05:51;19.20;;;15.43;;
23400;SDS011;11873;49.300;8.920;2023-03-03T04:10:51;20.23;;;15.37;;
23400;SDS011;11873;49.300;8.920;2023-03-03T04:15:51;23.90;;;16.17;;
23400;SDS011;11873;49.300;8.920;2023-03-03T04:20:52;21.80;;;16.13;;
23400;SDS011;11873;49.300;8.920;2023-03-03T04:25:52;24.53;;;17.90;;
23400;SDS011;11873;49.300;8.920;2023-03-03T04:30:52;24.83;;;17.20;;
23400;SDS011;11873;49.300;8.920;2023-03-03T04:35:52;22.93;;;16.83;;
23400;SDS011;11873;49.300;8.920;2023-03-03T04:40:52;24.10;;;16.70;;
23400;SDS011;11873;49.300;8.920;2023-03-03T04:45:53;22.53;;;16.60;;
23400;SDS011;11873;49.300;8.920;2023-03-03T04:50:53;21.63;;;15.40;;
23400;SDS011;11873;49.300;8.920;2023-03-03T04:55:53;21.07;;;17.00;;
23400;SDS011;11873;49.300;8.920;2023-03-03T05:00:54;22.97;;;16.70;;
23400;SDS011;11873;49.300;8.920;2023-03-03T05:05:54;23.63;;;16.63;;
23400;SDS011;11873;49.300;8.920;2023-03-03T05:10:54;20.03;;;15.93;;
23400;SDS011;11873;49.300;8.920;2023-03-03T05:15:55;19.33;;;14.83;;
23400;SDS011;11873;49.300;8.920;2023-03-03T05:20:55;19.90;;;15.57;;
23400;SDS011;11873;49.300;8.920;2023-03-03T05:25:55;20.67;;;15.83;;
23400;SDS011;11873;49.300;8.920;2023-03-03T05:30:55;21.97;;;15.80;;
23400;SDS011;11873;49.300;8.920;2023-03-03T05:35:56;22.97;;;15.97;;
23400;SDS011;11873;49.300;8.920;2023-03-03T05:40:56;19.13;;;16.07;;
23400;SDS011;11873;49.300;8.920;2023-03-03T05:45:56;22.00;;;16.50;;
23400;SDS011;11873;49.300;8.920;2023-03-03T05:50:57;26.63;;;20.53;;
23400;SDS011;11873;49.300;8.920;2023-03-03T05:55:57;25.77;;;21.43;;
23400;SDS011;11873;49.300;8.920;2023-03-03T06:00:58;26.67;;;19.83;;
23400;SDS011;11873;49.300;8.920;2023-03-03T06:05:58;27.67;;;22.67;;
23400;SDS011;11873;49.300;8.920;2023-03-03T06:10:58;26.60;;;20.80;;
23400;SDS011;11873;49.300;8.920;2023-03-03T06:15:58;21.73;;;17.43;;
23400;SDS011;11873;49.300;8.920;2023-03-03T06:20:58;24.60;;;15.87;;
23400;SDS011;11873;49.300;8.920;2023-03-03T06:25:58;23.23;;;16.70;;
23400;SDS011;11873;49.300;8.920;2023-03-03T06:30:59;20.63;;;15.23;;
23400;SDS011;11873;49.300;8.920;2023-03-03T06:35:59;19.23;;;15.57;;
23400;SDS011;11873;49.300;8.920;2023-03-03T06:40:59;30.37;;;18.43;;
23400;SDS011;11873;49.300;8.920;2023-03-03T06:45:59;26.23;;;18.43;;
23400;SDS011;11873;49.300;8.920;2023-03-03T06:51:01;24.80;;;19.70;;
23400;SDS011;11873;49.300;8.920;2023-03-03T06:56:04;17.70;;;13.17;;
23400;SDS011;11873;49.300;8.920;2023-03-03T07:01:12;20.83;;;14.40;;
23400;SDS011;11873;49.300;8.920;2023-03-03T07:06:23;17.43;;;12.97;;
23400;SDS011;11873;49.300;8.920;2023-03-03T07:11:23;16.93;;;12.73;;
23400;SDS011;11873;49.300;8.920;2023-03-03T07:16:24;20.77;;;13.37;;
23400;SDS011;11873;49.300;8.920;2023-03-03T07:21:32;21.20;;;13.87;;
23400;SDS011;11873;49.300;8.920;2023-03-03T07:26:33;25.30;;;19.43;;
23400;SDS011;11873;49.300;8.920;2023-03-03T07:31:34;25.77;;;16.50;;
23400;SDS011;11873;49.300;8.920;2023-03-03T07:36:35;30.33;;;20.00;;
23400;SDS011;11873;49.300;8.920;2023-03-03T07:41:36;27.17;;;19.17;;
23400;SDS011;11873;49.300;8.920;2023-03-03T07:46:43;24.27;;;17.17;;
23400;SDS011;11873;49.300;8.920;2023-03-03T07:51:43;23.17;;;16.10;;
23400;SDS011;11873;49.300;8.920;2023-03-03T07:56:43;25.90;;;19.03;;
23400;SDS011;11873;49.300;8.920;2023-03-03T08:01:43;26.30;;;19.23;;
23400;SDS011;11873;49.300;8.920;2023-03-03T08:11:50;25.70;;;19.87;;
23400;SDS011;11873;49.300;8.920;2023-03-03T08:16:50;25.00;;;19.30;;
23400;SDS011;11873;49.300;8.920;2023-03-03T08:21:52;27.37;;;19.50;;
23400;SDS011;11873;49.300;8.920;2023-03-03T08:26:55;26.60;;;19.33;;
23400;SDS011;11873;49.300;8.920;2023-03-03T08:31:55;27.97;;;19.83;;
23400;SDS011;11873;49.300;8.920;2023-03-03T08:36:55;26.63;;;19.47;;
23400;SDS011;11873;49.300;8.920;2023-03-03T08:41:56;26.23;;;19.10;;
23400;SDS011;11873;49.300;8.920;2023-03-03T08:46:56;26.57;;;18.87;;
23400;SDS011;11873;49.300;8.920;2023-03-03T08:51:56;26.07;;;18.73;;
23400;SDS011;11873;49.300;8.920;2023-03-03T08:56:56;27.73;;;18.40;;
23400;SDS011;11873;49.300;8.920;2023-03-03T09:01:56;24.97;;;18.63;;
23400;SDS011;11873;49.300;8.920;2023-03-03T09:06:56;26.83;;;19.50;;
23400;SDS011;11873;49.300;8.920;2023-03-03T09:11:57;26.07;;;18.60;;
23400;SDS011;11873;49.300;8.920;2023-03-03T09:16:57;23.53;;;17.20;;
23400;SDS011;11873;49.300;8.920;2023-03-03T09:22:00;24.60;;;15.87;;
23400;SDS011;11873;49.300;8.920;2023-03-03T09:27:02;25.20;;;16.57;;
23400;SDS011;11873;49.300;8.920;2023-03-03T09:32:32;19.50;;;15.50;;
23400;SDS011;11873;49.300;8.920;2023-03-03T09:37:34;23.50;;;15.70;;
23400;SDS011;11873;49.300;8.920;2023-03-03T09:47:43;22.00;;;16.30;;
23400;SDS011;11873;49.300;8.920;2023-03-03T10:13:36;25.53;;;16.87;;
23400;SDS011;11873;49.300;8.920;2023-03-03T10:19:01;25.47;;;18.03;;
23400;SDS011;11873;49.300;8.920;2023-03-03T10:24:01;20.67;;;13.43;;
23400;SDS011;11873;49.300;8.920;2023-03-03T10:34:14;20.70;;;13.37;;
23400;SDS011;11873;49.300;8.920;2023-03-03T10:44:28;19.57;;;12.97;;
23400;SDS011;11873;49.300;8.920;2023-03-03T10:49:40;23.93;;;16.47;;
23400;SDS011;11873;49.300;8.920;2023-03-03T10:54:46;28.87;;;18.93;;
23400;SDS011;11873;49.300;8.920;2023-03-03T10:59:52;23.73;;;16.70;;
23400;SDS011;11873;49.300;8.920;2023-03-03T11:15:33;28.13;;;17.50;;
23400;SDS011;11873;49.300;8.920;2023-03-03T11:25:44;24.37;;;16.60;;
23400;SDS011;11873;49.300;8.920;2023-03-03T11:36:08;23.50;;;17.23;;
23400;SDS011;11873;49.300;8.920;2023-03-03T11:46:17;23.70;;;16.40;;
23400;SDS011;11873;49.300;8.920;2023-03-03T11:51:26;23.27;;;14.07;;
23400;SDS011;11873;49.300;8.920;2023-03-03T12:11:53;25.37;;;16.53;;
23400;SDS011;11873;49.300;8.920;2023-03-03T12:17:05;25.47;;;16.97;;
23400;SDS011;11873;49.300;8.920;2023-03-03T12:27:38;24.40;;;16.40;;
23400;SDS011;11873;49.300;8.920;2023-03-03T12:37:54;25.80;;;16.83;;
23400;SDS011;11873;49.300;8.920;2023-03-03T12:42:59;24.03;;;16.53;;
23400;SDS011;11873;49.300;8.920;2023-03-03T12:48:07;23.83;;;15.10;;
23400;SDS011;11873;49.300;8.920;2023-03-03T12:53:20;15.23;;;9.50;;
23400;SDS011;11873;49.300;8.920;2023-03-03T12:58:33;21.87;;;15.77;;
23400;SDS011;11873;49.300;8.920;2023-03-03T13:09:16;17.90;;;13.23;;
23400;SDS011;11873;49.300;8.920;2023-03-03T13:19:22;15.93;;;11.97;;
23400;SDS011;11873;49.300;8.920;2023-03-03T13:24:30;17.37;;;12.43;;
23400;SDS011;11873;49.300;8.920;2023-03-03T13:29:34;20.43;;;13.67;;
23400;SDS011;11873;49.300;8.920;2023-03-03T13:34:38;20.47;;;13.90;;
23400;SDS011;11873;49.300;8.920;2023-03-03T13:39:52;17.20;;;12.53;;
23400;SDS011;11873;49.300;8.920;2023-03-03T13:44:54;18.30;;;10.97;;
23400;SDS011;11873;49.300;8.920;2023-03-03T13:55:16;16.80;;;12.97;;
23400;SDS011;11873;49.300;8.920;2023-03-03T14:00:26;18.30;;;12.33;;
23400;SDS011;11873;49.300;8.920;2023-03-03T14:10:40;18.03;;;12.37;;
23400;SDS011;11873;49.300;8.920;2023-03-03T14:20:47;20.53;;;13.50;;
23400;SDS011;11873;49.300;8.920;2023-03-03T14:25:49;25.23;;;17.57;;
23400;SDS011;11873;49.300;8.920;2023-03-03T14:30:52;27.77;;;17.70;;
23400;SDS011;11873;49.300;8.920;2023-03-03T14:41:02;24.90;;;17.23;;
23400;SDS011;11873;49.300;8.920;2023-03-03T14:46:27;36.53;;;23.33;;
23400;SDS011;11873;49.300;8.920;2023-03-03T14:51:32;24.57;;;17.60;;
23400;SDS011;11873;49.300;8.920;2023-03-03T14:56:33;25.43;;;16.60;;
23400;SDS011;11873;49.300;8.920;2023-03-03T15:01:34;26.00;;;17.50;;
23400;SDS011;11873;49.300;8.920;2023-03-03T15:06:45;27.27;;;18.50;;
23400;SDS011;11873;49.300;8.920;2023-03-03T15:11:49;27.37;;;18.70;;
23400;SDS011;11873;49.300;8.920;2023-03-03T15:16:49;26.63;;;17.17;;
23400;SDS011;11873;49.300;8.920;2023-03-03T15:21:55;28.60;;;18.90;;
23400;SDS011;11873;49.300;8.920;2023-03-03T15:27:00;26.80;;;19.07;;
23400;SDS011;11873;49.300;8.920;2023-03-03T15:32:14;27.20;;;17.73;;
23400;SDS011;11873;49.300;8.920;2023-03-03T15:37:27;30.60;;;18.20;;
23400;SDS011;11873;49.300;8.920;2023-03-03T15:47:57;24.00;;;17.13;;
23400;SDS011;11873;49.300;8.920;2023-03-03T16:03:19;27.03;;;19.23;;
23400;SDS011;11873;49.300;8.920;2023-03-03T16:08:26;26.00;;;17.00;;
23400;SDS011;11873;49.300;8.920;2023-03-03T16:13:47;26.43;;;18.00;;
23400;SDS011;11873;49.300;8.920;2023-03-03T16:19:06;24.63;;;18.13;;
23400;SDS011;11873;49.300;8.920;2023-03-03T16:24:14;27.37;;;17.53;;
23400;SDS011;11873;49.300;8.920;2023-03-03T16:40:13;29.50;;;17.00;;
23400;SDS011;11873;49.300;8.920;2023-03-03T16:50:24;28.83;;;17.33;;
23400;SDS011;11873;49.300;8.920;2023-03-03T17:05:54;23.37;;;16.37;;
23400;SDS011;11873;49.300;8.920;2023-03-03T17:21:02;27.83;;;19.13;;
23400;SDS011;11873;49.300;8.920;2023-03-03T17:31:09;25.33;;;17.87;;
23400;SDS011;11873;49.300;8.920;2023-03-03T17:47:04;31.23;;;20.60;;
23400;SDS011;11873;49.300;8.920;2023-03-03T17:51:59;26.97;;;16.57;;
23400;SDS011;11873;49.300;8.920;2023-03-03T17:57:24;29.80;;;20.50;;
23400;SDS011;11873;49.300;8.920;2023-03-03T18:12:41;31.20;;;21.30;;
23400;SDS011;11873;49.300;8.920;2023-03-03T18:18:02;33.90;;;21.77;;
23400;SDS011;11873;49.300;8.920;2023-03-03T18:28:22;33.60;;;19.73;;
23400;SDS011;11873;49.300;8.920;2023-03-03T18:38:43;34.43;;;24.03;;
23400;SDS011;11873;49.300;8.920;2023-03-03T18:48:47;30.10;;;21.20;;
23400;SDS011;11873;49.300;8.920;2023-03-03T18:53:58;32.10;;;23.13;;
23400;SDS011;11873;49.300;8.920;2023-03-03T18:58:59;35.93;;;20.43;;
23400;SDS011;11873;49.300;8.920;2023-03-03T19:04:08;27.77;;;19.60;;
23400;SDS011;11873;49.300;8.920;2023-03-03T19:09:11;28.87;;;21.13;;
23400;SDS011;11873;49.300;8.920;2023-03-03T19:14:17;30.53;;;20.53;;
23400;SDS011;11873;49.300;8.920;2023-03-03T19:19:18;26.63;;;19.90;;
23400;SDS011;11873;49.300;8.920;2023-03-03T19:24:29;31.07;;;20.70;;
23400;SDS011;11873;49.300;8.920;2023-03-03T19:29:46;28.40;;;20.40;;
23400;SDS011;11873;49.300;8.920;2023-03-03T19:45:36;28.30;;;20.57;;
23400;SDS011;11873;49.300;8.920;2023-03-03T19:51:00;32.30;;;23.27;;
23400;SDS011;11873;49.300;8.920;2023-03-03T20:11:30;38.33;;;24.17;;
23400;SDS011;11873;49.300;8.920;2023-03-03T20:16:37;32.17;;;22.77;;
23400;SDS011;11873;49.300;8.920;2023-03-03T20:21:42;33.10;;;23.07;;
23400;SDS011;11873;49.300;8.920;2023-03-03T20:26:50;37.17;;;24.87;;
23400;SDS011;11873;49.300;8.920;2023-03-03T20:32:16;32.57;;;23.20;;
23400;SDS011;11873;49.300;8.920;2023-03-03T20:37:24;37.60;;;24.93;;
23400;SDS011;11873;49.300;8.920;2023-03-03T20:57:55;28.23;;;19.80;;
23400;SDS011;11873;49.300;8.920;2023-03-03T21:03:16;28.27;;;20.67;;
23400;SDS011;11873;49.300;8.920;2023-03-03T21:08:18;26.03;;;17.73;;
23400;SDS011;11873;49.300;8.920;2023-03-03T21:18:24;26.70;;;19.17;;
23400;SDS011;11873;49.300;8.920;2023-03-03T21:23:25;21.43;;;15.00;;
23400;SDS011;11873;49.300;8.920;2023-03-03T21:28:32;24.13;;;16.50;;
23400;SDS011;11873;49.300;8.920;2023-03-03T21:38:39;22.63;;;16.43;;
23400;SDS011;11873;49.300;8.920;2023-03-03T21:43:40;27.57;;;18.10;;
23400;SDS011;11873;49.300;8.920;2023-03-03T21:48:41;28.77;;;20.17;;
23400;SDS011;11873;49.300;8.920;2023-03-03T21:53:42;31.13;;;20.00;;
23400;SDS011;11873;49.300;8.920;2023-03-03T21:58:42;29.70;;;18.70;;
23400;SDS011;11873;49.300;8.920;2023-03-03T22:03:43;28.90;;;19.00;;
23400;SDS011;11873;49.300;8.920;2023-03-03T22:08:43;22.53;;;16.17;;
23400;SDS011;11873;49.300;8.920;2023-03-03T22:13:43;23.27;;;15.53;;
23400;SDS011;11873;49.300;8.920;2023-03-03T22:18:43;18.63;;;14.50;;
23400;SDS011;11873;49.300;8.920;2023-03-03T22:23:43;22.50;;;15.50;;
23400;SDS011;11873;49.300;8.920;2023-03-03T22:28:43;19.97;;;14.93;;
23400;SDS011;11873;49.300;8.920;2023-03-03T22:33:43;21.20;;;14.90;;
23400;SDS011;11873;49.300;8.920;2023-03-03T22:38:44;18.27;;;13.03;;
23400;SDS011;11873;49.300;8.920;2023-03-03T22:43:45;19.93;;;14.97;;
23400;SDS011;11873;49.300;8.920;2023-03-03T22:48:45;26.30;;;17.07;;
23400;SDS011;11873;49.300;8.920;2023-03-03T22:53:45;20.90;;;15.70;;
23400;SDS011;11873;49.300;8.920;2023-03-03T22:58:45;22.27;;;13.90;;
23400;SDS011;11873;49.300;8.920;2023-03-03T23:03:45;23.07;;;14.43;;
23400;SDS011;11873;49.300;8.920;2023-03-03T23:08:45;23.70;;;14.47;;
23400;SDS011;11873;49.300;8.920;2023-03-03T23:13:46;20.30;;;14.33;;
23400;SDS011;11873;49.300;8.920;2023-03-03T23:18:46;23.90;;;15.40;;
23400;SDS011;11873;49.300;8.920;2023-03-03T23:23:46;22.33;;;15.20;;
23400;SDS011;11873;49.300;8.920;2023-03-03T23:28:46;22.40;;;15.47;;
23400;SDS011;11873;49.300;8.920;2023-03-03T23:33:46;18.33;;;14.47;;
23400;SDS011;11873;49.300;8.920;2023-03-03T23:38:46;19.97;;;14.50;;
23400;SDS011;11873;49.300;8.920;2023-03-03T23:43:47;21.57;;;14.80;;
23400;SDS011;11873;49.300;8.920;2023-03-03T23:48:47;18.00;;;12.83;;
23400;SDS011;11873;49.300;8.920;2023-03-03T23:53:47;19.03;;;13.67;;
23400;SDS011;11873;49.300;8.920;2023-03-03T23:58:47;18.90;;;13.17;;
